createdAt,value
2022-12-01T00:01:10.689Z,63.93
2022-12-01T00:03:38.115Z,63.49
2022-12-01T00:06:09.565Z,64.19
2022-12-01T00:08:36.302Z,63.80
2022-12-01T00:11:09.260Z,63.63
2022-12-01T00:13:36.929Z,63.28
2022-12-01T00:16:15.088Z,63.38
2022-12-01T00:18:42.094Z,63.48
2022-12-01T00:21:16.880Z,63.17
2022-12-01T00:23:44.744Z,63.80
2022-12-01T00:26:11.333Z,63.05
2022-12-01T00:28:37.995Z,62.66
2022-12-01T00:31:09.483Z,63.67
2022-12-01T00:33:36.193Z,62.94
2022-12-01T00:36:03.885Z,63.63
2022-12-01T00:38:31.587Z,63.56
2022-12-01T00:40:58.551Z,63.62
2022-12-01T00:43:25.251Z,64.04
2022-12-01T00:45:52.439Z,63.31
2022-12-01T00:48:20.942Z,62.70
2022-12-01T00:50:48.009Z,64.91
2022-12-01T00:53:15.211Z,64.15
2022-12-01T00:55:42.008Z,65.48
2022-12-01T00:58:08.631Z,63.92
2022-12-01T01:00:38.753Z,63.64
2022-12-01T01:03:06.824Z,64.00
2022-12-01T01:05:38.067Z,63.58
2022-12-01T01:08:09.528Z,63.30
2022-12-01T01:10:40.670Z,63.84
2022-12-01T01:13:07.750Z,63.78
2022-12-01T01:15:34.949Z,63.46
2022-12-01T01:18:02.402Z,63.66
2022-12-01T01:20:29.351Z,63.31
2022-12-01T01:22:56.114Z,63.24
2022-12-01T01:25:23.501Z,63.06
2022-12-01T01:27:50.809Z,63.54
2022-12-01T01:30:18.463Z,63.53
2022-12-01T01:32:45.098Z,63.42
2022-12-01T01:35:12.032Z,64.24
2022-12-01T01:37:39.612Z,63.55
2022-12-01T01:40:07.701Z,64.20
2022-12-01T01:42:34.364Z,63.58
2022-12-01T01:45:01.043Z,64.30
2022-12-01T01:47:33.448Z,63.88
2022-12-01T01:50:09.211Z,64.36
2022-12-01T01:52:38.932Z,64.01
2022-12-01T01:55:06.275Z,63.45
2022-12-01T01:57:34.352Z,63.85
2022-12-01T02:00:14.218Z,63.36
2022-12-01T02:02:45.469Z,63.31
2022-12-01T02:05:17.274Z,62.77
2022-12-01T02:07:45.570Z,62.64
2022-12-01T02:10:14.863Z,62.67
2022-12-01T02:13:00.030Z,62.97
2022-12-01T02:16:05.613Z,62.36
2022-12-01T02:19:04.474Z,63.88
2022-12-01T02:21:55.161Z,63.23
2022-12-01T02:24:59.014Z,63.07
2022-12-01T02:27:36.830Z,63.32
2022-12-01T02:30:19.526Z,63.35
2022-12-01T02:33:00.096Z,62.80
2022-12-01T02:35:47.391Z,62.83
2022-12-01T02:38:20.163Z,62.92
2022-12-01T02:40:54.333Z,62.60
2022-12-01T02:43:33.819Z,62.80
2022-12-01T02:46:18.348Z,62.92
2022-12-01T02:48:51.564Z,62.53
2022-12-01T02:51:30.633Z,62.78
2022-12-01T02:54:00.202Z,62.60
2022-12-01T02:56:27.285Z,63.50
2022-12-01T02:58:53.881Z,63.61
2022-12-01T03:01:32.880Z,63.06
2022-12-01T03:04:12.957Z,63.21
2022-12-01T03:06:45.920Z,62.71
2022-12-01T03:09:21.660Z,63.70
2022-12-01T03:12:19.462Z,63.10
2022-12-01T03:15:00.008Z,62.63
2022-12-01T03:17:35.313Z,63.38
2022-12-01T03:20:19.532Z,62.51
2022-12-01T03:23:00.695Z,63.04
2022-12-01T03:25:29.544Z,64.38
2022-12-01T03:28:20.643Z,65.12
2022-12-01T03:30:46.699Z,65.52
2022-12-01T03:33:21.624Z,64.85
2022-12-01T03:36:02.094Z,64.86
2022-12-01T03:38:30.442Z,64.74
2022-12-01T03:41:02.708Z,64.71
2022-12-01T03:43:33.905Z,63.91
2022-12-01T03:46:00.666Z,64.19
2022-12-01T03:48:28.347Z,64.08
2022-12-01T03:51:16.215Z,64.77
2022-12-01T03:53:58.178Z,64.87
2022-12-01T03:56:30.750Z,64.57
2022-12-01T03:59:01.351Z,64.33
2022-12-01T04:01:32.865Z,66.40
2022-12-01T04:04:09.083Z,66.47
2022-12-01T04:06:36.294Z,65.29
2022-12-01T04:09:03.940Z,64.70
2022-12-01T04:11:49.805Z,63.99
2022-12-01T04:14:16.457Z,64.02
2022-12-01T04:16:43.217Z,63.20
2022-12-01T04:19:12.114Z,63.86
2022-12-01T04:21:38.818Z,62.35
2022-12-01T04:24:05.626Z,63.16
2022-12-01T04:26:36.105Z,63.47
2022-12-01T04:29:09.271Z,63.51
2022-12-01T04:31:36.386Z,63.08
2022-12-01T04:34:03.969Z,62.73
2022-12-01T04:36:32.364Z,63.27
2022-12-01T04:38:59.332Z,63.04
2022-12-01T04:41:26.314Z,62.84
2022-12-01T04:43:57.522Z,63.41
2022-12-01T04:46:25.073Z,64.00
2022-12-01T04:48:52.698Z,65.08
2022-12-01T04:51:19.619Z,64.26
2022-12-01T04:53:46.259Z,64.00
2022-12-01T04:56:12.986Z,64.31
2022-12-01T04:58:39.758Z,64.20
2022-12-01T05:01:09.033Z,64.12
2022-12-01T05:03:49.607Z,62.09
2022-12-01T05:06:19.336Z,61.85
2022-12-01T05:08:46.348Z,62.86
2022-12-01T05:11:14.592Z,63.18
2022-12-01T05:13:43.539Z,62.36
2022-12-01T05:16:22.613Z,62.08
2022-12-01T05:19:13.819Z,62.51
2022-12-01T05:21:42.212Z,63.12
2022-12-01T05:24:09.520Z,63.31
2022-12-01T05:26:36.284Z,63.03
2022-12-01T05:29:03.477Z,62.66
2022-12-01T05:31:31.226Z,64.41
2022-12-01T05:33:57.917Z,63.82
2022-12-01T05:36:24.778Z,62.94
2022-12-01T05:38:51.315Z,63.55
2022-12-01T05:41:18.025Z,65.78
2022-12-01T05:43:44.828Z,65.15
2022-12-01T05:46:11.533Z,65.21
2022-12-01T05:48:38.213Z,65.68
2022-12-01T05:51:12.794Z,64.79
2022-12-01T05:53:39.867Z,64.94
2022-12-01T05:56:07.938Z,63.53
2022-12-01T05:58:35.333Z,64.54
2022-12-01T06:01:05.288Z,63.66
2022-12-01T06:03:32.129Z,63.85
2022-12-01T06:06:01.883Z,63.38
2022-12-01T06:08:28.680Z,63.08
2022-12-01T06:10:56.052Z,63.81
2022-12-01T06:13:23.599Z,63.54
2022-12-01T06:15:59.935Z,66.09
2022-12-01T06:18:27.551Z,65.69
2022-12-01T06:20:54.446Z,65.63
2022-12-01T06:23:24.311Z,63.56
2022-12-01T06:25:54.366Z,63.55
2022-12-01T06:28:23.189Z,62.99
2022-12-01T06:30:51.185Z,63.26
2022-12-01T06:33:18.139Z,63.22
2022-12-01T06:35:46.418Z,64.27
2022-12-01T06:38:13.043Z,62.69
2022-12-01T06:40:39.791Z,63.25
2022-12-01T06:43:06.972Z,63.35
2022-12-01T06:45:33.705Z,62.65
2022-12-01T06:48:00.421Z,62.21
2022-12-01T06:50:27.126Z,62.92
2022-12-01T06:52:54.988Z,63.69
2022-12-01T06:55:21.858Z,63.32
2022-12-01T06:57:48.757Z,63.55
2022-12-01T07:00:16.551Z,63.00
2022-12-01T07:02:43.753Z,63.43
2022-12-01T07:05:10.410Z,64.08
2022-12-01T07:07:39.183Z,64.08
2022-12-01T07:10:06.890Z,63.34
2022-12-01T07:12:33.962Z,63.42
2022-12-01T07:15:02.220Z,63.97
2022-12-01T07:17:29.821Z,63.89
2022-12-01T07:19:56.768Z,64.62
2022-12-01T07:22:29.523Z,63.31
2022-12-01T07:24:59.022Z,62.71
2022-12-01T07:27:25.660Z,62.44
2022-12-01T07:29:52.321Z,61.98
2022-12-01T07:32:18.932Z,62.63
2022-12-01T07:34:45.869Z,62.77
2022-12-01T07:37:17.008Z,63.07
2022-12-01T07:39:43.819Z,63.13
2022-12-01T07:42:10.434Z,62.47
2022-12-01T07:44:37.068Z,62.47
2022-12-01T07:47:03.799Z,62.28
2022-12-01T07:49:30.446Z,62.33
2022-12-01T07:51:57.345Z,63.39
2022-12-01T07:54:25.435Z,63.06
2022-12-01T07:56:52.178Z,63.49
2022-12-01T07:59:18.719Z,63.77
2022-12-01T08:01:46.348Z,63.31
2022-12-01T08:04:13.276Z,62.54
2022-12-01T08:06:39.936Z,63.34
2022-12-01T08:09:06.681Z,62.14
2022-12-01T08:11:33.894Z,64.09
2022-12-01T08:14:00.594Z,64.13
2022-12-01T08:16:27.413Z,63.88
2022-12-01T08:18:54.424Z,63.21
2022-12-01T08:21:23.026Z,63.27
2022-12-01T08:23:54.645Z,63.88
2022-12-01T08:26:22.333Z,63.52
2022-12-01T08:28:49.809Z,63.25
2022-12-01T08:31:26.472Z,62.82
2022-12-01T08:33:54.168Z,63.63
2022-12-01T08:36:22.076Z,62.86
2022-12-01T08:38:51.944Z,63.66
2022-12-01T08:41:18.862Z,63.27
2022-12-01T08:44:01.564Z,63.56
2022-12-01T08:46:29.557Z,64.20
2022-12-01T08:48:58.493Z,64.56
2022-12-01T08:51:26.080Z,64.41
2022-12-01T08:53:53.263Z,65.82
2022-12-01T08:56:24.318Z,64.89
2022-12-01T08:58:51.774Z,64.01
2022-12-01T09:01:19.180Z,63.65
2022-12-01T09:03:46.577Z,64.56
2022-12-01T09:06:21.917Z,64.81
2022-12-01T09:08:48.976Z,63.99
2022-12-01T09:11:18.355Z,63.71
2022-12-01T09:13:51.418Z,63.79
2022-12-01T09:16:21.335Z,63.63
2022-12-01T09:18:48.594Z,63.74
2022-12-01T09:21:24.271Z,63.71
2022-12-01T09:23:51.473Z,64.54
2022-12-01T09:26:19.917Z,63.67
2022-12-01T09:28:48.482Z,63.87
2022-12-01T09:31:17.076Z,63.76
2022-12-01T09:33:44.652Z,63.83
2022-12-01T09:36:11.363Z,63.28
2022-12-01T09:38:38.627Z,63.16
2022-12-01T09:41:09.199Z,64.26
2022-12-01T09:43:45.752Z,62.81
2022-12-01T09:46:18.618Z,62.25
2022-12-01T09:48:47.252Z,62.26
2022-12-01T09:51:15.786Z,62.18
2022-12-01T09:53:44.485Z,63.03
2022-12-01T09:56:22.227Z,62.49
2022-12-01T09:58:59.588Z,62.29
2022-12-01T10:01:37.357Z,61.20
2022-12-01T10:04:17.463Z,60.78
2022-12-01T10:06:56.026Z,61.18
2022-12-01T10:09:52.100Z,60.54
2022-12-01T10:12:23.833Z,60.83
2022-12-01T10:14:50.902Z,60.78
2022-12-01T10:17:51.729Z,60.60
2022-12-01T10:20:48.978Z,59.91
2022-12-01T10:23:33.891Z,59.61
2022-12-01T10:26:20.708Z,59.15
2022-12-01T10:29:05.716Z,60.56
2022-12-01T10:31:38.665Z,59.12
2022-12-01T10:34:16.428Z,59.83
2022-12-01T10:36:44.828Z,59.53
2022-12-01T10:39:26.827Z,59.01
2022-12-01T10:41:59.944Z,58.69
2022-12-01T10:44:29.243Z,58.72
2022-12-01T10:46:56.685Z,58.51
2022-12-01T10:49:41.241Z,57.48
2022-12-01T10:52:39.952Z,56.92
2022-12-01T10:55:28.311Z,56.71
2022-12-01T10:57:57.879Z,55.85
2022-12-01T11:03:23.273Z,56.75
2022-12-01T11:05:53.852Z,56.82
2022-12-01T11:08:24.056Z,56.17
2022-12-01T11:10:51.114Z,56.20
2022-12-01T11:13:29.544Z,55.75
2022-12-01T11:16:04.671Z,55.94
2022-12-01T11:18:38.644Z,55.42
2022-12-01T11:21:05.481Z,54.99
2022-12-01T11:23:35.080Z,55.70
2022-12-01T11:26:07.804Z,55.47
2022-12-01T11:28:35.027Z,55.22
2022-12-01T11:31:07.840Z,55.81
2022-12-01T11:33:44.288Z,54.92
2022-12-01T11:36:20.118Z,55.25
2022-12-01T11:38:49.252Z,53.72
2022-12-01T11:41:31.488Z,53.41
2022-12-01T11:44:02.083Z,53.95
2022-12-01T11:46:33.936Z,53.93
2022-12-01T11:49:01.476Z,53.33
2022-12-01T11:51:37.457Z,53.41
2022-12-01T11:54:13.622Z,53.65
2022-12-01T11:56:41.631Z,53.59
2022-12-01T11:59:14.454Z,52.77
2022-12-01T12:01:58.391Z,51.94
2022-12-01T12:04:43.768Z,52.22
2022-12-01T12:07:26.294Z,51.41
2022-12-01T12:10:18.040Z,50.60
2022-12-01T12:13:11.267Z,50.27
2022-12-01T12:15:56.211Z,50.63
2022-12-01T12:18:45.364Z,50.50
2022-12-01T12:21:27.389Z,50.37
2022-12-01T12:24:36.017Z,50.77
2022-12-01T12:27:23.996Z,49.43
2022-12-01T12:30:05.950Z,50.11
2022-12-01T12:32:53.881Z,50.04
2022-12-01T12:35:35.442Z,49.80
2022-12-01T12:38:22.490Z,50.60
2022-12-01T12:41:14.275Z,49.54
2022-12-01T12:43:49.984Z,49.53
2022-12-01T12:46:45.620Z,50.05
2022-12-01T12:49:21.344Z,50.14
2022-12-01T12:51:55.287Z,50.17
2022-12-01T12:54:31.774Z,50.42
2022-12-01T12:57:04.043Z,51.47
2022-12-01T12:59:48.861Z,51.41
2022-12-01T13:02:22.698Z,51.93
2022-12-01T13:04:59.592Z,50.95
2022-12-01T13:07:36.389Z,52.38
2022-12-01T13:10:11.284Z,50.90
2022-12-01T13:12:41.612Z,50.66
2022-12-01T13:15:19.831Z,51.33
2022-12-01T13:17:52.560Z,51.43
2022-12-01T13:20:21.030Z,50.97
2022-12-01T13:22:49.048Z,51.37
2022-12-01T13:25:32.742Z,51.30
2022-12-01T13:28:01.881Z,50.87
2022-12-01T13:30:28.750Z,51.61
2022-12-01T13:33:05.549Z,51.47
2022-12-01T13:35:34.997Z,51.46
2022-12-01T13:38:20.396Z,51.20
2022-12-01T13:40:47.773Z,50.80
2022-12-01T13:43:22.622Z,51.43
2022-12-01T13:45:50.576Z,51.58
2022-12-01T13:48:36.788Z,51.28
2022-12-01T13:51:04.902Z,51.84
2022-12-01T13:53:32.594Z,51.63
2022-12-01T13:56:17.708Z,51.73
2022-12-01T13:58:44.390Z,51.55
2022-12-01T14:01:21.083Z,52.31
2022-12-01T14:04:03.836Z,52.72
2022-12-01T14:06:51.497Z,52.13
2022-12-01T14:09:27.480Z,52.85
2022-12-01T14:12:00.607Z,52.50
2022-12-01T14:14:34.800Z,53.16
2022-12-01T14:17:03.281Z,53.56
2022-12-01T14:19:52.076Z,53.55
2022-12-01T14:22:40.707Z,53.74
2022-12-01T14:25:30.732Z,53.75
2022-12-01T14:28:01.049Z,53.63
2022-12-01T14:30:45.144Z,54.39
2022-12-01T14:33:45.083Z,54.59
2022-12-01T14:36:23.739Z,53.88
2022-12-01T14:38:59.859Z,53.52
2022-12-01T14:41:34.249Z,52.83
2022-12-01T14:44:35.679Z,53.86
2022-12-01T14:47:25.785Z,54.07
2022-12-01T14:50:03.130Z,54.80
2022-12-01T14:52:36.734Z,54.59
2022-12-01T14:55:07.945Z,54.38
2022-12-01T14:57:39.802Z,54.79
2022-12-01T15:00:14.895Z,55.38
2022-12-01T15:02:43.757Z,56.84
2022-12-01T15:05:19.978Z,57.48
2022-12-01T15:07:49.940Z,56.79
2022-12-01T15:10:26.240Z,57.79
2022-12-01T15:12:54.211Z,56.86
2022-12-01T15:15:26.287Z,56.80
2022-12-01T15:18:01.745Z,57.15
2022-12-01T15:20:28.489Z,57.09
2022-12-01T15:22:56.304Z,57.24
2022-12-01T15:25:25.468Z,57.21
2022-12-01T15:28:18.197Z,57.85
2022-12-01T15:30:51.775Z,57.94
2022-12-01T15:33:36.997Z,58.02
2022-12-01T15:36:05.781Z,58.42
2022-12-01T15:38:35.807Z,57.96
2022-12-01T15:41:28.378Z,58.39
2022-12-01T15:44:00.711Z,58.01
2022-12-01T15:46:32.722Z,59.02
2022-12-01T15:49:17.108Z,59.10
2022-12-01T15:51:44.697Z,58.05
2022-12-01T15:54:21.454Z,58.55
2022-12-01T15:56:53.203Z,59.28
2022-12-01T15:59:39.213Z,59.12
2022-12-01T16:02:28.050Z,59.91
2022-12-01T16:05:13.168Z,59.94
2022-12-01T16:10:34.364Z,60.25
2022-12-01T16:13:59.664Z,59.28
2022-12-01T16:16:42.859Z,59.43
2022-12-01T16:19:10.351Z,58.70
2022-12-01T16:21:54.107Z,59.46
2022-12-01T16:24:47.287Z,60.66
2022-12-01T16:27:19.687Z,60.41
2022-12-01T16:30:05.131Z,61.20
2022-12-01T16:32:40.368Z,61.38
2022-12-01T16:35:27.430Z,61.65
2022-12-01T16:37:55.322Z,61.45
2022-12-01T16:40:22.709Z,61.98
2022-12-01T16:42:50.022Z,61.72
2022-12-01T16:45:19.015Z,61.91
2022-12-01T16:47:47.848Z,62.12
2022-12-01T16:50:16.895Z,62.10
2022-12-01T16:52:45.665Z,62.07
2022-12-01T16:55:49.898Z,62.00
2022-12-01T16:58:16.695Z,61.49
2022-12-01T17:00:43.295Z,61.38
2022-12-01T17:03:16.113Z,61.86
2022-12-01T17:05:42.827Z,62.46
2022-12-01T17:08:10.621Z,62.14
2022-12-01T17:10:45.058Z,61.75
2022-12-01T17:13:12.756Z,61.38
2022-12-01T17:15:43.997Z,60.67
2022-12-01T17:18:12.305Z,62.57
2022-12-01T17:20:39.563Z,61.56
2022-12-01T17:23:06.428Z,60.82
2022-12-01T17:25:33.632Z,60.26
2022-12-01T17:28:01.229Z,60.39
2022-12-01T17:30:27.961Z,60.09
2022-12-01T17:32:54.506Z,59.46
2022-12-01T17:35:21.454Z,59.71
2022-12-01T17:37:48.023Z,60.28
2022-12-01T17:40:14.881Z,59.31
2022-12-01T17:42:45.556Z,58.51
2022-12-01T17:45:17.503Z,58.83
2022-12-01T17:47:44.721Z,58.40
2022-12-01T17:50:11.442Z,58.65
2022-12-01T17:52:38.198Z,58.54
2022-12-01T17:55:04.922Z,58.20
2022-12-01T17:57:31.611Z,58.15
2022-12-01T17:59:58.312Z,58.48
2022-12-01T18:02:25.377Z,58.68
2022-12-01T18:04:52.349Z,58.50
2022-12-01T18:07:19.323Z,58.16
2022-12-01T18:09:46.115Z,59.05
2022-12-01T18:12:12.668Z,58.57
2022-12-01T18:14:39.392Z,59.86
2022-12-01T18:17:06.093Z,59.40
2022-12-01T18:19:33.094Z,58.73
2022-12-01T18:21:59.720Z,59.61
2022-12-01T18:24:26.355Z,60.12
2022-12-01T18:26:54.585Z,59.98
2022-12-01T18:29:26.557Z,59.62
2022-12-01T18:31:58.140Z,59.28
2022-12-01T18:34:26.570Z,60.01
2022-12-01T18:36:53.372Z,59.98
2022-12-01T18:39:20.071Z,60.16
2022-12-01T18:41:46.931Z,60.18
2022-12-01T18:44:13.935Z,60.62
2022-12-01T18:46:41.074Z,60.77
2022-12-01T18:49:11.721Z,60.16
2022-12-01T18:51:39.140Z,60.36
2022-12-01T18:54:07.687Z,61.47
2022-12-01T18:56:34.751Z,60.76
2022-12-01T18:59:06.775Z,60.58
2022-12-01T19:01:39.936Z,60.42
2022-12-01T19:04:08.675Z,59.41
2022-12-01T19:06:37.211Z,60.07
2022-12-01T19:09:06.591Z,59.36
2022-12-01T19:11:33.647Z,59.28
2022-12-01T19:14:00.362Z,58.50
2022-12-01T19:16:27.447Z,59.69
2022-12-01T19:19:03.523Z,59.84
2022-12-01T19:21:31.909Z,60.10
2022-12-01T19:23:58.535Z,61.12
2022-12-01T19:26:26.109Z,60.97
2022-12-01T19:28:53.223Z,60.43
2022-12-01T19:31:24.755Z,61.27
2022-12-01T19:33:55.240Z,62.08
2022-12-01T19:36:27.299Z,61.98
2022-12-01T19:38:57.504Z,61.73
2022-12-01T19:41:25.687Z,61.31
2022-12-01T19:43:52.942Z,61.37
2022-12-01T19:46:22.488Z,61.44
2022-12-01T19:48:56.271Z,60.66
2022-12-01T19:51:26.247Z,61.39
2022-12-01T19:53:54.227Z,61.22
2022-12-01T19:56:22.611Z,61.24
2022-12-01T19:58:49.680Z,62.06
2022-12-01T20:01:18.393Z,62.40
2022-12-01T20:03:47.727Z,62.35
2022-12-01T20:06:18.820Z,62.30
2022-12-01T20:08:46.257Z,61.08
2022-12-01T20:11:14.526Z,61.25
2022-12-01T20:13:43.235Z,61.14
2022-12-01T20:16:16.138Z,61.87
2022-12-01T20:18:43.073Z,61.00
2022-12-01T20:21:22.751Z,60.78
2022-12-01T20:23:57.739Z,60.24
2022-12-01T20:26:30.381Z,61.44
2022-12-01T20:29:10.117Z,61.24
2022-12-01T20:31:38.045Z,60.09
2022-12-01T20:34:12.209Z,59.59
2022-12-01T20:36:39.165Z,60.50
2022-12-01T20:39:06.265Z,61.37
2022-12-01T20:41:33.258Z,60.97
2022-12-01T20:44:06.738Z,60.73
2022-12-01T20:46:34.737Z,60.84
2022-12-01T20:49:01.647Z,60.83
2022-12-01T20:51:28.411Z,60.55
2022-12-01T20:54:26.067Z,59.72
2022-12-01T20:56:42.135Z,59.93
2022-12-01T20:59:09.368Z,60.10
2022-12-01T21:01:36.537Z,60.47
2022-12-01T21:04:03.406Z,61.74
2022-12-01T21:06:30.742Z,61.44
2022-12-01T21:08:58.103Z,59.53
2022-12-01T21:11:47.408Z,59.59
2022-12-01T21:14:18.595Z,59.72
2022-12-01T21:16:49.418Z,59.01
2022-12-01T21:19:49.969Z,60.22
2022-12-01T21:22:16.703Z,59.85
2022-12-01T21:24:48.712Z,60.01
2022-12-01T21:27:17.063Z,59.09
2022-12-01T21:29:49.058Z,59.98
2022-12-01T21:32:26.795Z,60.17
2022-12-01T21:34:56.163Z,60.70
2022-12-01T21:37:25.396Z,60.44
2022-12-01T21:39:53.311Z,59.21
2022-12-01T21:42:24.914Z,60.03
2022-12-01T21:44:52.001Z,59.55
2022-12-01T21:47:21.674Z,59.68
2022-12-01T21:49:54.336Z,60.32
2022-12-01T21:52:30.136Z,60.56
2022-12-01T21:55:17.310Z,59.72
2022-12-01T21:57:49.838Z,59.99
2022-12-01T22:00:19.654Z,60.57
2022-12-01T22:02:52.363Z,61.30
2022-12-01T22:05:41.881Z,61.27
2022-12-01T22:08:14.539Z,60.61
2022-12-01T22:10:58.575Z,60.96
2022-12-01T22:13:29.749Z,61.62
2022-12-01T22:15:57.400Z,62.46
2022-12-01T22:18:39.271Z,61.77
2022-12-01T22:21:24.665Z,62.45
2022-12-01T22:24:01.126Z,62.97
2022-12-01T22:26:27.976Z,62.57
2022-12-01T22:28:58.149Z,62.97
2022-12-01T22:31:26.422Z,63.04
2022-12-01T22:34:02.828Z,62.71
2022-12-01T22:36:33.347Z,62.89
2022-12-01T22:39:00.975Z,62.31
2022-12-01T22:41:28.780Z,62.00
2022-12-01T22:43:56.895Z,60.55
2022-12-01T22:46:31.649Z,60.99
2022-12-01T22:48:59.754Z,61.06
2022-12-01T22:51:38.125Z,60.88
2022-12-01T22:54:24.758Z,61.60
2022-12-01T22:57:22.799Z,61.76
2022-12-01T22:59:50.350Z,62.80
2022-12-01T23:02:21.516Z,61.39
2022-12-01T23:04:50.214Z,62.20
2022-12-01T23:07:29.205Z,62.58
2022-12-01T23:10:01.209Z,62.03
2022-12-01T23:12:30.754Z,62.50
2022-12-01T23:15:07.070Z,62.76
2022-12-01T23:17:43.422Z,63.41
2022-12-01T23:20:10.357Z,64.15
2022-12-01T23:22:38.490Z,63.44
2022-12-01T23:25:16.814Z,63.68
2022-12-01T23:27:45.091Z,63.10
2022-12-01T23:30:13.097Z,62.56
2022-12-01T23:32:42.452Z,61.90
2022-12-01T23:35:15.644Z,61.89
2022-12-01T23:37:44.790Z,61.69
2022-12-01T23:40:27.726Z,62.05
2022-12-01T23:42:54.807Z,61.05
2022-12-01T23:45:25.147Z,60.40
2022-12-01T23:47:54.486Z,61.31
2022-12-01T23:50:26.517Z,61.63
2022-12-01T23:52:53.986Z,61.57
2022-12-01T23:55:26.030Z,61.09
2022-12-01T23:57:53.118Z,61.29
